Time;durP1;ratioP1;P1;durP2;ratioP2;P2;SDS_P1;SDS_P2;PMS_P1;PMS_P2;Temp;Humidity;BMP_temperature;BMP_pressure;BME280_temperature;BME280_humidity;BME280_pressure;Samples;Min_cycle;Max_cycle;Signal;HPM_P1;HPM_P2
2023/03/18 00:02:25;;;;;;;17.45;8.57;;;;;;;9.30;nan;100957.91;5008454;28;20036;-55
2023/03/18 00:04:51;;;;;;;20.80;8.25;;;;;;;9.30;nan;100955.28;5006300;28;20025;-58
2023/03/18 00:07:17;;;;;;;17.33;7.55;;;;;;;9.31;nan;100949.06;4992627;28;20034;-56
2023/03/18 00:09:43;;;;;;;20.92;7.85;;;;;;;9.33;nan;100952.47;4997999;28;20031;-53
2023/03/18 00:12:09;;;;;;;16.77;8.55;;;;;;;9.34;nan;100942.84;4998620;28;20116;-55
2023/03/18 00:14:36;;;;;;;18.70;8.18;;;;;;;9.36;nan;100944.44;5002407;28;20370;-56
2023/03/18 00:17:02;;;;;;;17.30;7.50;;;;;;;9.38;nan;100945.22;5004645;28;20046;-56
2023/03/18 00:19:28;;;;;;;19.55;8.55;;;;;;;9.37;nan;100943.53;5008870;28;20036;-55
2023/03/18 00:21:54;;;;;;;16.13;7.85;;;;;;;9.37;nan;100942.69;5003632;28;20046;-54
2023/03/18 00:24:20;;;;;;;14.77;7.18;;;;;;;9.38;nan;100939.97;5006482;28;20503;-53
2023/03/18 00:26:46;;;;;;;18.83;8.57;;;;;;;9.38;nan;100937.34;5002246;28;20038;-57
2023/03/18 00:29:11;;;;;;;19.40;8.05;;;;;;;9.38;nan;100945.22;4994486;28;20041;-57
2023/03/18 00:31:37;;;;;;;16.52;8.50;;;;;;;9.37;nan;100935.66;5001269;28;20021;-55
2023/03/18 00:34:03;;;;;;;17.55;7.65;;;;;;;9.38;nan;100937.34;5003080;28;20029;-57
2023/03/18 00:36:29;;;;;;;17.85;8.48;;;;;;;9.37;nan;100934.81;5005308;28;20515;-53
2023/03/18 00:38:56;;;;;;;16.27;7.47;;;;;;;9.40;nan;100930.25;5003055;28;20545;-55
2023/03/18 00:41:26;;;;;;;17.35;7.70;;;;;;;9.41;nan;100929.31;5004541;28;20049;-59
2023/03/18 00:43:52;;;;;;;15.38;7.88;;;;;;;9.40;nan;100932.88;5007340;28;20034;-57
2023/03/18 00:46:26;;;;;;;18.08;8.10;;;;;;;9.43;nan;100937.09;5003027;28;20022;-57
2023/03/18 00:48:55;;;;;;;11.35;4.88;;;;;;;9.42;nan;100936.28;5003744;28;20515;-56
2023/03/18 00:51:23;;;;;;;17.00;7.97;;;;;;;9.43;nan;100937.97;4998484;28;20065;-56
2023/03/18 00:53:53;;;;;;;14.27;7.53;;;;;;;9.43;nan;100931.84;5007879;28;20506;-55
2023/03/18 00:56:21;;;;;;;18.92;7.63;;;;;;;9.47;nan;100930.78;5006418;28;20037;-57
2023/03/18 00:58:48;;;;;;;16.02;8.00;;;;;;;9.45;nan;100928.22;5007701;28;20030;-59
2023/03/18 01:01:14;;;;;;;19.30;8.10;;;;;;;9.46;nan;100932.53;4999131;28;20109;-55
2023/03/18 01:03:41;;;;;;;17.00;7.75;;;;;;;9.45;nan;100920.34;4999256;28;20029;-54
2023/03/18 01:06:10;;;;;;;13.68;7.35;;;;;;;9.48;nan;100926.38;5004510;28;20017;-57
2023/03/18 01:08:36;;;;;;;13.80;7.00;;;;;;;9.47;nan;100922.91;5000520;28;20109;-55
2023/03/18 01:11:02;;;;;;;16.63;7.07;;;;;;;9.48;nan;100918.50;4999595;28;20384;-56
2023/03/18 01:13:29;;;;;;;15.35;7.60;;;;;;;9.45;nan;100909.84;5004323;28;20022;-55
2023/03/18 01:15:55;;;;;;;16.10;7.47;;;;;;;9.48;nan;100908.84;4999213;28;20037;-54
2023/03/18 01:18:22;;;;;;;14.50;7.88;;;;;;;9.48;nan;100913.22;5008496;28;20084;-57
2023/03/18 01:20:48;;;;;;;17.23;7.95;;;;;;;9.44;nan;100907.28;5005783;28;20037;-57
2023/03/18 01:23:14;;;;;;;12.88;6.65;;;;;;;9.48;nan;100910.59;5000219;28;20034;-57
2023/03/18 01:25:39;;;;;;;16.15;6.95;;;;;;;9.48;nan;100900.97;4995262;28;20026;-57
2023/03/18 01:28:05;;;;;;;17.17;7.10;;;;;;;9.49;nan;100894.78;4994381;28;20033;-58
2023/03/18 01:30:33;;;;;;;14.93;7.55;;;;;;;9.51;nan;100892.06;4997205;28;20053;-57
2023/03/18 01:33:00;;;;;;;18.88;7.30;;;;;;;9.52;nan;100893.78;5000230;28;20370;-55
2023/03/18 01:35:26;;;;;;;15.65;7.55;;;;;;;9.53;nan;100885.81;5003458;28;20103;-57
2023/03/18 01:37:52;;;;;;;10.52;6.57;;;;;;;9.54;nan;100889.28;5006796;28;20033;-56
2023/03/18 01:40:19;;;;;;;16.83;7.00;;;;;;;9.53;nan;100884.97;5003905;28;20038;-56
2023/03/18 01:42:53;;;;;;;14.70;7.63;;;;;;;9.52;nan;100888.53;4999960;28;20022;-54
2023/03/18 01:45:24;;;;;;;14.60;6.38;;;;;;;9.51;nan;100886.81;4991293;28;20033;-59
2023/03/18 01:47:50;;;;;;;17.20;6.20;;;;;;;9.48;nan;100884.34;5002163;28;20026;-57
2023/03/18 01:50:25;;;;;;;15.20;6.68;;;;;;;9.44;nan;100888.91;4999801;28;20030;-56
2023/03/18 01:52:58;;;;;;;13.05;6.53;;;;;;;9.42;nan;100889.00;4998694;28;20377;-56
2023/03/18 01:55:26;;;;;;;13.10;6.78;;;;;;;9.37;nan;100896.25;5007570;28;20419;-57
2023/03/18 01:57:53;;;;;;;15.75;6.47;;;;;;;9.32;nan;100893.00;5005911;28;20116;-57
2023/03/18 02:00:20;;;;;;;15.90;8.20;;;;;;;9.25;nan;100895.06;4992740;28;20619;-55
2023/03/18 02:02:48;;;;;;;16.83;6.63;;;;;;;9.19;nan;100891.91;4991105;28;20037;-56
2023/03/18 02:05:17;;;;;;;14.70;6.28;;;;;;;9.14;nan;100890.38;4985342;28;20429;-54
2023/03/18 02:07:44;;;;;;;11.32;5.28;;;;;;;9.13;nan;100886.06;5001267;28;20034;-56
2023/03/18 02:10:18;;;;;;;15.02;6.15;;;;;;;9.12;nan;100886.97;4999043;28;20030;-58
2023/03/18 02:12:55;;;;;;;13.48;5.35;;;;;;;9.13;nan;100883.44;5002742;28;20531;-54
2023/03/18 02:15:22;;;;;;;17.20;6.20;;;;;;;9.12;nan;100880.88;5003825;28;20034;-53
2023/03/18 02:18:10;;;;;;;12.95;6.43;;;;;;;9.14;nan;100877.25;5004567;28;20037;-61
2023/03/18 02:21:13;;;;;;;11.85;5.10;;;;;;;9.17;nan;100872.75;5005662;28;20048;-55
2023/03/18 02:24:05;;;;;;;12.50;6.50;;;;;;;9.18;nan;100882.31;4999128;28;20472;-56
2023/03/18 02:26:46;;;;;;;10.82;5.18;;;;;;;9.23;nan;100888.22;5002718;28;20042;-55
2023/03/18 02:29:14;;;;;;;12.82;5.75;;;;;;;9.24;nan;100882.03;5005888;28;20030;-57
2023/03/18 02:31:41;;;;;;;15.23;7.07;;;;;;;9.26;nan;100888.06;5003668;28;20113;-53
2023/03/18 02:34:08;;;;;;;11.90;5.95;;;;;;;9.26;nan;100872.31;5000773;28;20026;-58
2023/03/18 02:36:35;;;;;;;12.73;5.90;;;;;;;9.29;nan;100878.25;5000169;28;20038;-55
2023/03/18 02:39:01;;;;;;;11.32;5.72;;;;;;;9.27;nan;100877.47;5003596;28;20052;-58
2023/03/18 02:41:31;;;;;;;13.57;5.32;;;;;;;9.25;nan;100881.94;5001711;28;20057;-57
2023/03/18 02:43:56;;;;;;;14.07;6.90;;;;;;;9.26;nan;100882.81;5003021;28;20533;-57
2023/03/18 02:46:25;;;;;;;11.60;5.93;;;;;;;9.27;nan;100879.25;5007785;28;20033;-56
2023/03/18 02:48:51;;;;;;;12.30;5.95;;;;;;;9.25;nan;100875.88;5006371;28;20532;-57
2023/03/18 02:51:18;;;;;;;17.48;7.18;;;;;;;9.25;nan;100883.75;5003962;28;20025;-55
2023/03/18 02:53:44;;;;;;;14.00;6.18;;;;;;;9.24;nan;100874.16;4999438;28;20392;-58
2023/03/18 02:56:10;;;;;;;14.15;6.68;;;;;;;9.25;nan;100870.59;5001219;28;20123;-58
2023/03/18 02:58:37;;;;;;;17.13;6.55;;;;;;;9.24;nan;100874.16;4999523;28;20046;-55
2023/03/18 03:01:03;;;;;;;18.77;6.88;;;;;;;9.24;nan;100874.16;4992500;28;20507;-53
2023/03/18 03:03:29;;;;;;;12.48;6.05;;;;;;;9.23;nan;100881.16;4999796;28;20038;-57
2023/03/18 03:05:55;;;;;;;17.35;6.00;;;;;;;9.21;nan;100875.19;5004058;28;20079;-56
2023/03/18 03:08:21;;;;;;;13.75;6.53;;;;;;;9.17;nan;100884.13;5005231;28;20544;-54
2023/03/18 03:10:49;;;;;;;15.27;6.60;;;;;;;9.15;nan;100876.31;5003090;28;20064;-55
2023/03/18 03:13:15;;;;;;;12.52;6.30;;;;;;;9.13;nan;100888.69;5004960;28;20030;-54
2023/03/18 03:15:42;;;;;;;13.52;6.82;;;;;;;9.16;nan;100877.16;5005066;28;20362;-54
2023/03/18 03:18:09;;;;;;;14.32;5.68;;;;;;;9.10;nan;100885.34;5004710;28;20032;-56
2023/03/18 03:20:36;;;;;;;12.88;6.95;;;;;;;9.07;nan;100877.63;4998752;28;20115;-56
2023/03/18 03:23:12;;;;;;;17.02;7.13;;;;;;;9.05;nan;100875.06;5001600;28;20033;-53
2023/03/18 03:25:38;;;;;;;13.63;6.47;;;;;;;9.05;nan;100885.56;5004657;28;20044;-57
2023/03/18 03:28:06;;;;;;;18.20;7.65;;;;;;;9.05;nan;100868.97;5008661;28;20033;-55
2023/03/18 03:30:32;;;;;;;13.45;6.70;;;;;;;9.05;nan;100880.31;5004848;28;20116;-56
2023/03/18 03:32:59;;;;;;;12.95;6.20;;;;;;;9.04;nan;100875.16;5004557;28;20072;-55
2023/03/18 03:35:25;;;;;;;19.77;6.57;;;;;;;9.02;nan;100874.38;5003751;28;20104;-54
2023/03/18 03:37:51;;;;;;;15.30;5.47;;;;;;;9.00;nan;100880.53;5001188;28;20484;-56
2023/03/18 03:40:19;;;;;;;16.05;6.00;;;;;;;9.02;nan;100869.97;5002335;28;20117;-57
2023/03/18 03:42:46;;;;;;;12.93;6.10;;;;;;;9.01;nan;100863.00;5006749;28;20030;-56
2023/03/18 03:45:13;;;;;;;14.32;6.47;;;;;;;8.99;nan;100864.88;5008642;28;20034;-58
2023/03/18 03:47:40;;;;;;;10.70;5.22;;;;;;;9.00;nan;100871.81;5002482;28;20393;-52
2023/03/18 03:50:06;;;;;;;12.95;6.45;;;;;;;8.98;nan;100878.94;5002126;28;20124;-56
2023/03/18 03:52:32;;;;;;;12.43;6.45;;;;;;;8.99;nan;100886.72;5001356;28;20404;-54
2023/03/18 03:54:59;;;;;;;19.08;8.30;;;;;;;8.97;nan;100882.47;5004399;28;20026;-57
2023/03/18 03:57:26;;;;;;;16.92;8.50;;;;;;;8.95;nan;100886.94;4999410;28;20029;-53
2023/03/18 03:59:52;;;;;;;10.48;4.70;;;;;;;8.90;nan;100888.94;5001617;28;20503;-53
2023/03/18 04:02:18;;;;;;;17.27;7.07;;;;;;;8.89;nan;100884.63;5007379;28;20084;-53
2023/03/18 04:04:44;;;;;;;16.98;5.57;;;;;;;8.88;nan;100889.03;5004567;28;20145;-57
2023/03/18 04:07:10;;;;;;;15.52;7.07;;;;;;;8.90;nan;100899.44;4996658;28;20037;-57
2023/03/18 04:09:36;;;;;;;15.15;7.55;;;;;;;8.89;nan;100888.09;5002112;28;20195;-55
2023/03/18 04:12:03;;;;;;;13.57;5.60;;;;;;;8.90;nan;100896.81;5009268;28;20700;-55
2023/03/18 04:14:28;;;;;;;16.05;6.28;;;;;;;8.90;nan;100896.81;5001530;28;20037;-54
2023/03/18 04:16:59;;;;;;;14.93;7.70;;;;;;;8.90;nan;100900.31;5001904;28;20103;-55
2023/03/18 04:19:26;;;;;;;19.02;7.30;;;;;;;8.88;nan;100903.91;5004857;28;20571;-56
2023/03/18 04:21:55;;;;;;;15.30;7.50;;;;;;;8.87;nan;100912.69;5002994;28;20037;-55
2023/03/18 04:24:21;;;;;;;13.77;6.68;;;;;;;8.85;nan;100900.50;5001229;28;20034;-56
2023/03/18 04:26:47;;;;;;;13.68;6.13;;;;;;;8.83;nan;100902.38;4999832;28;20041;-56
2023/03/18 04:29:13;;;;;;;16.38;6.90;;;;;;;8.84;nan;100903.22;5012343;28;20514;-57
2023/03/18 04:31:39;;;;;;;14.95;6.13;;;;;;;8.84;nan;100917.19;5006155;28;20041;-58
2023/03/18 04:34:05;;;;;;;15.27;7.13;;;;;;;8.84;nan;100913.69;5003482;28;20038;-58
2023/03/18 04:36:31;;;;;;;12.93;6.05;;;;;;;8.81;nan;100913.84;5003094;28;20039;-58
2023/03/18 04:38:57;;;;;;;16.60;6.93;;;;;;;8.81;nan;100903.34;5003243;28;20095;-59
2023/03/18 04:41:22;;;;;;;18.25;8.05;;;;;;;8.81;nan;100906.84;5001454;28;20092;-59
2023/03/18 04:43:48;;;;;;;14.25;7.43;;;;;;;8.81;nan;100908.59;4994309;28;20046;-58
2023/03/18 04:46:14;;;;;;;15.70;7.30;;;;;;;8.79;nan;100919.19;5001807;28;20034;-58
2023/03/18 04:48:40;;;;;;;14.95;6.03;;;;;;;8.77;nan;100913.16;5004181;28;20038;-57
2023/03/18 04:51:08;;;;;;;10.50;4.88;;;;;;;8.76;nan;100916.69;5007432;28;20032;-56
2023/03/18 04:53:34;;;;;;;20.02;7.60;;;;;;;8.75;nan;100911.53;4995621;28;20045;-56
2023/03/18 04:56:00;;;;;;;13.05;6.72;;;;;;;8.74;nan;100913.28;4998726;28;20112;-58
2023/03/18 04:58:26;;;;;;;16.73;6.97;;;;;;;8.73;nan;100922.06;4997944;28;20125;-56
2023/03/18 05:00:52;;;;;;;16.65;7.05;;;;;;;8.72;nan;100917.75;5002670;28;20026;-59
2023/03/18 05:03:18;;;;;;;19.40;7.72;;;;;;;8.72;nan;100924.78;5000676;28;20444;-57
2023/03/18 05:05:43;;;;;;;13.75;6.30;;;;;;;8.72;nan;100924.78;5003637;28;20032;-56
2023/03/18 05:08:09;;;;;;;15.32;7.40;;;;;;;8.67;nan;100920.59;5003355;28;20022;-56
2023/03/18 05:10:35;;;;;;;14.93;7.07;;;;;;;8.62;nan;100919.13;4990233;28;20030;-57
2023/03/18 05:13:00;;;;;;;15.20;6.38;;;;;;;8.61;nan;100917.41;4998500;28;20559;-57
2023/03/18 05:15:26;;;;;;;17.02;6.85;;;;;;;8.61;nan;100912.16;5003905;28;20057;-57
2023/03/18 05:17:52;;;;;;;13.30;6.55;;;;;;;8.57;nan;100913.22;5004346;28;20476;-59
2023/03/18 05:20:18;;;;;;;16.13;7.05;;;;;;;8.52;nan;100910.81;5003044;28;20543;-58
2023/03/18 05:22:43;;;;;;;20.30;8.23;;;;;;;8.52;nan;100908.19;5006824;28;20048;-56
2023/03/18 05:25:10;;;;;;;20.23;7.80;;;;;;;8.49;nan;100909.19;5001759;28;20041;-55
2023/03/18 05:27:36;;;;;;;15.02;6.47;;;;;;;8.51;nan;100923.09;5002745;28;20619;-56
2023/03/18 05:30:05;;;;;;;15.70;7.07;;;;;;;8.51;nan;100915.22;5000339;28;20601;-57
2023/03/18 05:32:31;;;;;;;22.25;7.57;;;;;;;8.51;nan;100912.59;4997741;28;20054;-55
2023/03/18 05:34:57;;;;;;;15.23;7.03;;;;;;;8.50;nan;100925.78;5003571;28;20033;-56
2023/03/18 05:37:23;;;;;;;17.42;7.22;;;;;;;8.49;nan;100916.19;4997349;28;20405;-56
2023/03/18 05:39:49;;;;;;;10.02;5.72;;;;;;;8.49;nan;100914.44;5002210;28;20118;-56
2023/03/18 05:42:15;;;;;;;18.23;6.97;;;;;;;8.49;nan;100916.19;5003915;28;20115;-56
2023/03/18 05:44:41;;;;;;;16.33;6.05;;;;;;;8.51;nan;100917.84;4999025;28;20109;-58
2023/03/18 05:47:08;;;;;;;15.77;6.72;;;;;;;8.52;nan;100909.06;4996548;28;20063;-56
2023/03/18 05:49:34;;;;;;;15.35;6.65;;;;;;;8.53;nan;100908.16;4991483;28;20125;-54
2023/03/18 05:52:00;;;;;;;14.35;7.07;;;;;;;8.52;nan;100916.94;4999793;28;20045;-56
2023/03/18 05:54:25;;;;;;;14.40;6.30;;;;;;;8.52;nan;100919.56;4997784;28;20030;-58
2023/03/18 05:56:53;;;;;;;12.77;6.53;;;;;;;8.53;nan;100910.78;4999220;28;20039;-56
2023/03/18 05:59:20;;;;;;;13.38;6.32;;;;;;;8.53;nan;100908.16;4998132;28;20171;-61
2023/03/18 06:01:47;;;;;;;14.73;7.78;;;;;;;8.55;nan;100913.31;4995730;28;20018;-57
2023/03/18 06:04:14;;;;;;;18.98;8.07;;;;;;;8.58;nan;100912.31;5002327;28;20029;-59
2023/03/18 06:06:39;;;;;;;14.90;7.30;;;;;;;8.61;nan;100923.53;4991665;28;20481;-57
2023/03/18 06:09:10;;;;;;;16.98;7.30;;;;;;;8.61;nan;100918.28;5004923;28;20030;-59
2023/03/18 06:11:38;;;;;;;14.55;7.22;;;;;;;8.62;nan;100917.31;4996286;28;20134;-57
2023/03/18 06:14:05;;;;;;;21.00;6.95;;;;;;;8.63;nan;100924.28;4999924;28;20034;-59
2023/03/18 06:16:32;;;;;;;15.18;7.00;;;;;;;8.63;nan;100920.81;5004323;28;20022;-55
2023/03/18 06:18:57;;;;;;;15.85;8.20;;;;;;;8.61;nan;100922.66;4995322;28;20021;-56
2023/03/18 06:21:28;;;;;;;19.15;9.43;;;;;;;8.62;nan;100921.75;5004165;28;20057;-56
2023/03/18 06:23:53;;;;;;;19.73;7.70;;;;;;;8.65;nan;100913.72;4998006;28;20739;-57
2023/03/18 06:26:20;;;;;;;18.23;7.78;;;;;;;8.66;nan;100915.44;5003746;28;20038;-58
2023/03/18 06:28:46;;;;;;;21.35;8.00;;;;;;;8.68;nan;100919.69;5002932;28;20361;-55
2023/03/18 06:31:12;;;;;;;18.17;6.55;;;;;;;8.67;nan;100920.59;5005075;28;20552;-56
2023/03/18 06:33:38;;;;;;;15.75;6.78;;;;;;;8.69;nan;100925.78;4999885;28;20026;-58
2023/03/18 06:36:04;;;;;;;12.65;7.03;;;;;;;8.72;nan;100932.66;4997445;28;20455;-57
2023/03/18 06:38:30;;;;;;;17.95;7.13;;;;;;;8.69;nan;100929.25;5003717;28;20044;-57
2023/03/18 06:40:56;;;;;;;13.40;6.68;;;;;;;8.72;nan;100930.88;4999201;28;20113;-58
2023/03/18 06:43:22;;;;;;;13.90;6.90;;;;;;;8.74;nan;100931.66;5000620;28;20030;-55
2023/03/18 06:45:47;;;;;;;16.75;8.30;;;;;;;8.75;nan;100932.53;5004569;28;20036;-60
2023/03/18 06:48:13;;;;;;;22.17;9.18;;;;;;;8.76;nan;100935.06;5001860;28;20034;-62
2023/03/18 06:50:39;;;;;;;26.10;10.77;;;;;;;8.76;nan;100940.31;4989266;28;20038;-57
2023/03/18 06:53:06;;;;;;;17.42;7.90;;;;;;;8.81;nan;100940.94;4999491;28;20057;-60
2023/03/18 06:55:31;;;;;;;13.90;6.63;;;;;;;8.84;nan;100946.06;5002182;28;20030;-55
2023/03/18 06:57:57;;;;;;;13.10;6.40;;;;;;;8.90;nan;100938.81;4998741;28;20036;-57
2023/03/18 07:00:23;;;;;;;28.30;8.52;;;;;;;8.94;nan;100943.81;4996767;28;21197;-55
2023/03/18 07:02:50;;;;;;;11.82;5.53;;;;;;;8.96;nan;100946.41;5002235;28;20045;-54
2023/03/18 07:05:16;;;;;;;11.40;6.18;;;;;;;9.03;nan;100950.41;5006080;28;20048;-56
2023/03/18 07:07:42;;;;;;;12.63;5.70;;;;;;;9.10;nan;100956.22;5007179;28;20064;-58
2023/03/18 07:10:16;;;;;;;14.38;6.15;;;;;;;9.17;nan;100956.75;5002192;28;20104;-61
2023/03/18 07:12:41;;;;;;;14.70;6.50;;;;;;;9.22;nan;100944.28;4998831;28;20053;-61
2023/03/18 07:15:07;;;;;;;12.38;6.30;;;;;;;9.27;nan;100961.50;5001456;28;20175;-58
2023/03/18 07:17:33;;;;;;;10.80;5.90;;;;;;;9.34;nan;100953.34;5003889;28;20420;-60
2023/03/18 07:19:59;;;;;;;11.02;6.32;;;;;;;9.39;nan;100960.06;5001576;28;20496;-62
2023/03/18 07:22:25;;;;;;;13.32;6.00;;;;;;;9.47;nan;100964.94;5007657;28;20484;-55
2023/03/18 07:24:51;;;;;;;14.50;6.35;;;;;;;9.52;nan;100957.69;5008106;28;20084;-57
2023/03/18 07:27:16;;;;;;;13.23;7.05;;;;;;;9.61;nan;100964.22;5007239;28;20033;-57
2023/03/18 07:29:42;;;;;;;20.45;10.18;;;;;;;9.68;nan;100970.88;5007014;28;20034;-56
2023/03/18 07:32:08;;;;;;;19.00;8.18;;;;;;;9.72;nan;100969.81;5005300;28;20057;-56
2023/03/18 07:34:34;;;;;;;17.40;8.15;;;;;;;9.77;nan;100966.94;5004508;28;20038;-56
2023/03/18 07:36:59;;;;;;;14.57;7.43;;;;;;;9.78;nan;100963.41;5009080;28;20029;-54
2023/03/18 07:39:25;;;;;;;13.98;6.80;;;;;;;9.80;nan;100976.44;5006061;28;20042;-55
2023/03/18 07:41:51;;;;;;;9.50;6.22;;;;;;;9.80;nan;100965.94;4999839;28;20491;-57
2023/03/18 07:44:17;;;;;;;11.95;6.20;;;;;;;9.79;nan;100961.59;4996865;28;20037;-54
2023/03/18 07:46:43;;;;;;;10.70;5.70;;;;;;;9.80;nan;100966.78;5007161;28;20030;-61
2023/03/18 07:49:09;;;;;;;10.95;5.68;;;;;;;9.86;nan;100963.00;4998624;28;20030;-58
2023/03/18 07:51:35;;;;;;;12.00;5.70;;;;;;;9.87;nan;100964.72;5000505;28;20415;-60
2023/03/18 07:54:00;;;;;;;13.10;6.20;;;;;;;9.86;nan;100966.47;5006003;28;20034;-60
2023/03/18 07:56:26;;;;;;;13.50;5.97;;;;;;;9.84;nan;100970.13;5009004;28;20400;-56
2023/03/18 07:58:51;;;;;;;12.63;6.22;;;;;;;9.82;nan;100974.59;5007254;28;20030;-56
2023/03/18 08:01:18;;;;;;;15.57;7.10;;;;;;;9.81;nan;100979.00;5004297;28;20026;-58
2023/03/18 08:03:45;;;;;;;16.80;8.02;;;;;;;9.85;nan;100984.97;4994073;28;20064;-57
2023/03/18 08:06:11;;;;;;;14.10;6.88;;;;;;;9.89;nan;100991.75;4999171;28;20053;-56
2023/03/18 08:08:37;;;;;;;13.07;5.53;;;;;;;9.95;nan;100982.72;4978699;28;20037;-55
2023/03/18 08:11:02;;;;;;;9.95;5.30;;;;;;;10.02;nan;100995.47;4991258;28;20068;-60
2023/03/18 08:13:28;;;;;;;15.48;5.20;;;;;;;10.08;nan;100994.28;5004290;28;20516;-57
2023/03/18 08:15:55;;;;;;;12.30;4.47;;;;;;;10.12;nan;100989.72;4990995;28;20080;-59
2023/03/18 08:18:21;;;;;;;9.57;4.72;;;;;;;10.14;nan;100995.75;4988025;28;20076;-58
2023/03/18 08:20:47;;;;;;;11.00;4.50;;;;;;;10.16;nan;100994.72;4992423;28;20038;-60
2023/03/18 08:23:13;;;;;;;10.18;5.00;;;;;;;10.17;nan;100991.19;4998303;28;20524;-60
2023/03/18 08:25:39;;;;;;;7.85;4.93;;;;;;;10.19;nan;100989.31;4998867;28;20045;-59
2023/03/18 08:28:06;;;;;;;11.25;4.82;;;;;;;10.20;nan;100984.94;5001264;28;20068;-61
2023/03/18 08:30:33;;;;;;;9.52;4.82;;;;;;;10.21;nan;100981.34;5000352;28;20038;-60
2023/03/18 08:32:59;;;;;;;10.30;4.75;;;;;;;10.22;nan;100978.66;4998814;28;20028;-62
2023/03/18 08:35:25;;;;;;;9.50;4.72;;;;;;;10.21;nan;100990.09;5001903;28;20033;-59
2023/03/18 08:37:51;;;;;;;9.82;5.38;;;;;;;10.23;nan;100987.38;4996269;28;20034;-61
2023/03/18 08:40:18;;;;;;;10.45;4.93;;;;;;;10.21;nan;100989.22;4994920;28;20092;-62
2023/03/18 08:42:44;;;;;;;9.18;4.93;;;;;;;10.25;nan;100988.16;5000531;28;20558;-62
2023/03/18 08:45:11;;;;;;;11.95;4.60;;;;;;;10.27;nan;100988.91;4997993;28;20073;-58
2023/03/18 08:47:36;;;;;;;8.48;4.10;;;;;;;10.28;nan;100993.25;5003376;28;20034;-57
2023/03/18 08:50:03;;;;;;;12.45;7.13;;;;;;;10.34;nan;100998.19;4994546;28;20037;-56
2023/03/18 08:52:28;;;;;;;15.18;5.40;;;;;;;10.40;nan;100997.06;5002152;28;20117;-56
2023/03/18 08:54:54;;;;;;;11.65;4.72;;;;;;;10.44;nan;100998.56;5011371;28;20044;-58
2023/03/18 08:57:19;;;;;;;10.07;4.95;;;;;;;10.49;nan;100993.09;4990396;28;20547;-56
2023/03/18 08:59:45;;;;;;;9.50;4.90;;;;;;;10.55;nan;101003.28;4997350;28;20026;-60
2023/03/18 09:02:15;;;;;;;11.88;5.30;;;;;;;10.63;nan;101008.97;4999340;28;20041;-62
2023/03/18 09:04:41;;;;;;;9.50;5.03;;;;;;;10.71;nan;101015.59;4996258;28;20030;-57
2023/03/18 09:07:07;;;;;;;7.55;3.95;;;;;;;10.76;nan;101024.09;4996952;28;20682;-56
2023/03/18 09:09:33;;;;;;;12.20;5.25;;;;;;;10.85;nan;101028.88;4989012;28;20802;-61
2023/03/18 09:11:58;;;;;;;11.93;5.07;;;;;;;10.95;nan;101024.81;5002854;28;20456;-55
2023/03/18 09:14:25;;;;;;;14.10;5.63;;;;;;;11.06;nan;101018.09;5004044;28;21757;-58
2023/03/18 09:16:50;;;;;;;10.93;5.45;;;;;;;11.15;nan;101020.22;4995338;28;20026;-55
2023/03/18 09:19:16;;;;;;;11.23;4.53;;;;;;;11.29;nan;101019.44;5001168;28;20034;-56
2023/03/18 09:21:42;;;;;;;9.38;4.55;;;;;;;11.42;nan;101027.50;5002522;28;20032;-59
2023/03/18 09:24:08;;;;;;;12.00;4.80;;;;;;;11.60;nan;101030.88;5001712;28;20076;-55
2023/03/18 09:26:33;;;;;;;11.40;5.28;;;;;;;11.80;nan;101027.09;4996749;28;20432;-56
2023/03/18 09:28:58;;;;;;;9.88;4.53;;;;;;;12.01;nan;101026.81;5006849;28;20061;-55
2023/03/18 09:31:24;;;;;;;12.57;4.22;;;;;;;12.17;nan;101029.38;4995618;28;20052;-57
2023/03/18 09:33:49;;;;;;;12.80;5.63;;;;;;;12.38;nan;101032.50;5006794;28;20087;-60
2023/03/18 09:36:15;;;;;;;12.50;4.80;;;;;;;12.61;nan;101024.97;5008294;28;20026;-57
2023/03/18 09:38:41;;;;;;;15.63;5.07;;;;;;;12.79;nan;101031.72;5008832;28;21728;-61
2023/03/18 09:41:17;;;;;;;15.73;4.65;;;;;;;12.95;nan;101031.63;5004566;28;20052;-57
2023/03/18 09:43:51;;;;;;;11.68;4.75;;;;;;;13.10;nan;101032.44;5003817;28;20022;-57
2023/03/18 09:46:35;;;;;;;14.88;5.80;;;;;;;13.19;nan;101035.44;5003307;28;20389;-56
2023/03/18 09:49:00;;;;;;;12.07;4.95;;;;;;;13.32;nan;101040.75;4999833;28;20057;-54
2023/03/18 09:51:37;;;;;;;11.27;5.80;;;;;;;13.41;nan;101042.88;5006321;28;20061;-56
2023/03/18 09:54:11;;;;;;;14.50;7.65;;;;;;;13.49;nan;101045.84;5006576;28;20045;-57
2023/03/18 09:56:38;;;;;;;15.57;6.90;;;;;;;13.54;nan;101042.88;5001183;28;20084;-57
2023/03/18 09:59:18;;;;;;;10.23;5.05;;;;;;;13.59;nan;101035.50;5003052;28;20120;-59
2023/03/18 10:01:48;;;;;;;10.50;5.25;;;;;;;13.65;nan;101029.84;5007096;28;20038;-58
2023/03/18 10:04:40;;;;;;;11.57;4.47;;;;;;;13.80;nan;101035.88;5003579;28;20117;-56
2023/03/18 10:07:15;;;;;;;11.65;4.65;;;;;;;13.92;nan;101036.00;4993824;28;20132;-56
2023/03/18 10:10:10;;;;;;;11.88;5.65;;;;;;;14.01;nan;101048.63;4995769;28;20029;-57
2023/03/18 10:12:47;;;;;;;11.95;5.65;;;;;;;14.05;nan;101051.91;4996187;28;20455;-56
2023/03/18 10:15:29;;;;;;;12.75;5.22;;;;;;;14.02;nan;101053.81;4992119;28;20029;-57
2023/03/18 10:18:00;;;;;;;16.38;4.60;;;;;;;14.06;nan;101043.03;5005864;28;20396;-60
2023/03/18 10:20:47;;;;;;;19.00;8.68;;;;;;;14.01;nan;101038.88;4999511;28;20022;-55
2023/03/18 10:23:34;;;;;;;16.02;6.18;;;;;;;13.98;nan;101035.59;5007929;28;20097;-56
2023/03/18 10:26:29;;;;;;;8.75;4.93;;;;;;;13.91;nan;101040.47;5007430;28;20105;-53
2023/03/18 10:29:13;;;;;;;11.82;6.15;;;;;;;13.83;nan;101037.50;5002140;28;20571;-53
2023/03/18 10:31:54;;;;;;;9.98;5.03;;;;;;;13.69;nan;101039.25;5002889;28;20696;-55
2023/03/18 10:34:30;;;;;;;8.52;4.35;;;;;;;13.62;nan;101040.59;5004805;28;20481;-57
2023/03/18 10:37:17;;;;;;;10.80;4.80;;;;;;;13.54;nan;101049.03;5005528;28;20030;-57
2023/03/18 10:39:45;;;;;;;13.18;6.10;;;;;;;13.52;nan;101058.03;5001122;28;20515;-56
2023/03/18 10:42:26;;;;;;;11.93;5.95;;;;;;;13.54;nan;101045.53;5009503;28;21250;-61
2023/03/18 10:45:07;;;;;;;11.05;5.18;;;;;;;13.61;nan;101060.06;5005011;28;20052;-59
2023/03/18 10:47:39;;;;;;;14.05;5.47;;;;;;;13.75;nan;101047.72;5009156;28;20064;-56
2023/03/18 10:50:16;;;;;;;;;;;;;;;13.84;nan;101044.47;5004535;28;20029;-59
2023/03/18 10:52:51;;;;;;;13.60;7.07;;;;;;;13.94;nan;101053.50;5012552;28;19917;-61
2023/03/18 10:55:21;;;;;;;14.70;6.22;;;;;;;13.97;nan;101049.78;5006222;28;20152;-61
2023/03/18 10:57:47;;;;;;;9.25;5.60;;;;;;;13.98;nan;101049.69;5004735;28;20022;-61
2023/03/18 11:00:28;;;;;;;15.48;7.05;;;;;;;14.02;nan;101048.50;5002111;28;20032;-56
2023/03/18 11:02:55;;;;;;;18.25;6.53;;;;;;;14.06;nan;101048.31;5009536;28;20878;-57
2023/03/18 11:05:29;;;;;;;10.65;4.72;;;;;;;14.11;nan;101046.22;5007248;28;20025;-56
2023/03/18 11:08:04;;;;;;;11.73;5.13;;;;;;;14.20;nan;101042.94;5006638;28;20104;-56
2023/03/18 11:10:56;;;;;;;10.63;5.30;;;;;;;14.29;nan;101041.44;5006847;28;20116;-60
2023/03/18 11:13:22;;;;;;;10.27;5.05;;;;;;;14.37;nan;101031.16;4995745;28;20042;-61
2023/03/18 11:15:55;;;;;;;9.75;5.22;;;;;;;14.48;nan;101039.25;5002246;28;20038;-62
2023/03/18 11:18:23;;;;;;;12.93;5.28;;;;;;;14.56;nan;101041.34;5009148;28;20037;-57
2023/03/18 11:20:59;;;;;;;15.32;5.35;;;;;;;14.66;nan;101035.41;5006653;28;20042;-59
2023/03/18 11:23:47;;;;;;;14.32;5.20;;;;;;;14.70;nan;101036.91;5008269;28;20059;-54
2023/03/18 11:26:25;;;;;;;12.65;5.57;;;;;;;14.74;nan;101030.47;5010691;28;20504;-57
2023/03/18 11:28:56;;;;;;;12.30;6.43;;;;;;;14.79;nan;101030.94;5004534;28;20046;-59
2023/03/18 11:31:21;;;;;;;12.95;5.40;;;;;;;14.80;nan;101027.34;4999051;28;20031;-59
2023/03/18 11:33:47;;;;;;;15.70;5.82;;;;;;;14.79;nan;101030.94;5000160;28;21051;-54
2023/03/18 11:36:19;;;;;;;11.00;5.38;;;;;;;14.83;nan;101032.44;5002108;28;20187;-59
2023/03/18 11:38:56;;;;;;;11.05;5.50;;;;;;;14.87;nan;101028.63;5003874;28;20032;-58
2023/03/18 11:41:24;;;;;;;12.07;6.43;;;;;;;14.89;nan;101026.72;4998498;28;20560;-56
2023/03/18 11:43:55;;;;;;;10.43;5.38;;;;;;;14.88;nan;101027.66;5012199;28;20060;-57
2023/03/18 11:46:24;;;;;;;10.77;5.32;;;;;;;14.90;nan;101030.19;4994810;28;20547;-57